Time;durP1;ratioP1;P1;durP2;ratioP2;P2;SDS_P1;SDS_P2;PMS_P1;PMS_P2;Temp;Humidity;BMP_temperature;BMP_pressure;BME280_temperature;BME280_humidity;BME280_pressure;Samples;Min_cycle;Max_cycle;Signal;HPM_P1;HPM_P2
2022/07/14 00:00:40;;;;;;;4.08;2.17;;;;;;;15.72;75.34;99311.62;1760323;79;21114;-67
2022/07/14 00:03:08;;;;;;;6.42;2.98;;;;;;;15.72;75.27;99314.26;1754528;81;21030;-67
2022/07/14 00:05:35;;;;;;;4.83;1.95;;;;;;;15.73;75.40;99305.40;1763516;80;21011;-67
2022/07/14 00:08:04;;;;;;;6.12;2.77;;;;;;;15.74;76.12;99307.09;1763107;80;21000;-67
2022/07/14 00:10:31;;;;;;;8.45;2.27;;;;;;;15.72;76.06;99307.68;1723634;82;21097;-67
2022/07/14 00:12:57;;;;;;;4.65;1.82;;;;;;;15.73;75.59;99304.08;1727696;81;20968;-67
2022/07/14 00:15:24;;;;;;;4.28;1.85;;;;;;;15.71;75.54;99304.70;1723680;82;21563;-67
2022/07/14 00:17:51;;;;;;;8.93;2.50;;;;;;;15.67;75.63;99306.66;1782671;79;20939;-67
2022/07/14 00:20:18;;;;;;;4.10;1.90;;;;;;;15.64;75.44;99300.80;1778000;79;20979;-67
2022/07/14 00:22:45;;;;;;;8.18;2.00;;;;;;;15.61;75.56;99293.14;1785236;79;21071;-67
2022/07/14 00:25:12;;;;;;;7.90;1.90;;;;;;;15.58;75.71;99294.20;1731743;82;20917;-67
2022/07/14 00:27:38;;;;;;;7.33;1.30;;;;;;;15.54;75.53;99297.16;1720312;82;21053;-67
2022/07/14 00:30:07;;;;;;;5.70;2.05;;;;;;;15.50;75.52;99302.31;1717771;82;21008;-67
2022/07/14 00:32:35;;;;;;;3.60;1.55;;;;;;;15.44;75.58;99300.49;1742584;81;21104;-67
2022/07/14 00:35:03;;;;;;;13.80;2.37;;;;;;;15.38;75.56;99303.58;1728621;81;21559;-67
2022/07/14 00:37:30;;;;;;;6.95;2.00;;;;;;;15.34;75.58;99302.11;1789253;79;20943;-66
2022/07/14 00:39:58;;;;;;;6.08;2.33;;;;;;;15.29;75.70;99299.01;1781461;79;25276;-67
2022/07/14 00:42:38;;;;;;;5.87;1.72;;;;;;;15.24;75.74;99298.50;1782596;78;21502;-67
2022/07/14 00:45:09;;;;;;;5.10;1.85;;;;;;;15.19;75.72;99305.88;1782107;79;20924;-67
2022/07/14 00:47:37;;;;;;;6.10;2.22;;;;;;;15.13;75.73;99312.42;1783379;79;21138;-67
2022/07/14 00:50:06;;;;;;;4.75;1.67;;;;;;;15.08;75.72;99305.82;1779902;79;20942;-67
2022/07/14 00:52:33;;;;;;;4.35;1.70;;;;;;;15.05;76.10;99311.30;1783906;79;20939;-67
2022/07/14 00:55:00;;;;;;;9.35;1.87;;;;;;;14.99;75.87;99308.16;1778755;79;21681;-67
2022/07/14 00:57:27;;;;;;;11.90;2.20;;;;;;;14.97;75.86;99304.80;1782322;79;21562;-67
2022/07/14 00:59:56;;;;;;;4.53;1.72;;;;;;;14.92;75.78;99318.73;1777374;79;21459;-66
2022/07/14 01:02:23;;;;;;;3.60;1.60;;;;;;;14.88;75.84;99318.61;1790254;78;20974;-67
2022/07/14 01:04:50;;;;;;;3.95;1.52;;;;;;;14.81;75.99;99322.61;1783111;79;21152;-67
2022/07/14 01:07:19;;;;;;;5.22;1.70;;;;;;;14.77;75.98;99321.16;1780433;79;21030;-67
2022/07/14 01:09:46;;;;;;;6.50;2.10;;;;;;;14.70;76.01;99326.02;1779896;79;21570;-67
2022/07/14 01:12:14;;;;;;;;;;;;;;;14.68;76.36;99321.82;1791085;78;21001;-67
2022/07/14 01:14:41;;;;;;;6.30;2.12;;;;;;;14.63;76.12;99325.24;1790154;78;20079;-67
2022/07/14 01:17:10;;;;;;;4.95;1.67;;;;;;;14.55;76.17;99326.60;1789132;78;21053;-67
2022/07/14 01:19:37;;;;;;;4.87;1.55;;;;;;;14.54;76.44;99324.10;1792568;78;20947;-67
2022/07/14 01:22:05;;;;;;;5.45;2.10;;;;;;;14.52;76.92;99329.45;1791748;78;21114;-66
2022/07/14 01:24:32;;;;;;;;;;;;;;;14.51;76.45;99326.44;1798306;78;21150;-67
2022/07/14 01:26:58;;;;;;;6.70;1.55;;;;;;;14.48;77.49;99321.40;1788784;78;20163;-66
2022/07/14 01:29:27;;;;;;;10.00;1.90;;;;;;;14.50;76.78;99323.90;1793009;78;20987;-66
2022/07/14 01:31:54;;;;;;;4.87;1.62;;;;;;;14.45;76.53;99321.61;1793659;78;21665;-67
2022/07/14 01:34:21;;;;;;;5.45;2.05;;;;;;;14.43;77.03;99323.50;1795141;78;20940;-66
2022/07/14 01:36:52;;;;;;;6.37;1.62;;;;;;;14.42;76.65;99318.34;1792120;78;21339;-67
2022/07/14 01:39:19;;;;;;;8.35;1.32;;;;;;;14.40;76.59;99328.97;1758186;78;21005;-66
2022/07/14 01:41:46;;;;;;;8.45;1.55;;;;;;;14.37;76.66;99322.62;1737073;81;20984;-66
2022/07/14 01:44:13;;;;;;;11.43;2.22;;;;;;;14.36;76.69;99324.02;1795449;78;21045;-66
2022/07/14 01:46:40;;;;;;;5.58;1.55;;;;;;;14.32;76.59;99332.11;1796865;78;21641;-66
2022/07/14 01:49:07;;;;;;;9.30;2.40;;;;;;;14.28;76.99;99325.41;1790900;78;21002;-66
2022/07/14 01:51:34;;;;;;;8.63;2.20;;;;;;;14.27;76.80;99332.06;1791344;78;21468;-66
2022/07/14 01:54:04;;;;;;;6.87;1.77;;;;;;;14.24;76.86;99335.73;1796773;78;21458;-66
2022/07/14 01:56:32;;;;;;;5.78;1.35;;;;;;;14.21;76.99;99331.18;1732826;82;20916;-66
2022/07/14 01:59:00;;;;;;;6.90;1.70;;;;;;;14.21;77.06;99328.55;1728165;82;21141;-66
2022/07/14 02:01:39;;;;;;;6.70;2.15;;;;;;;14.17;77.21;99327.93;1719523;82;21142;-66
2022/07/14 02:04:09;;;;;;;7.97;1.70;;;;;;;14.14;77.22;99332.53;1746794;80;20939;-67
2022/07/14 02:06:38;;;;;;;8.10;2.05;;;;;;;14.10;77.15;99330.11;1791675;77;21002;-66
2022/07/14 02:09:04;;;;;;;8.30;2.30;;;;;;;14.06;77.23;99335.22;1789412;77;21543;-66
2022/07/14 02:14:16;;;;;;;6.95;1.80;;;;;;;14.02;77.58;99335.05;1763062;80;21568;-67
2022/07/14 02:16:43;;;;;;;6.83;1.73;;;;;;;14.00;77.37;99331.70;1764917;79;21030;-67
2022/07/14 02:19:09;;;;;;;4.60;1.40;;;;;;;13.96;77.58;99338.09;1763958;80;20897;-67
2022/07/14 02:21:39;;;;;;;4.20;1.47;;;;;;;13.95;77.61;99333.80;1763365;79;21454;-67
2022/07/14 02:24:09;;;;;;;6.65;2.10;;;;;;;13.93;77.52;99330.42;1767578;80;20988;-67
2022/07/14 02:26:38;;;;;;;5.90;1.67;;;;;;;13.90;77.54;99334.56;1763515;80;21421;-66
2022/07/14 02:29:06;;;;;;;7.33;2.37;;;;;;;13.89;77.73;99331.55;1756248;80;21717;-67
2022/07/14 02:31:33;;;;;;;8.53;1.92;;;;;;;13.87;77.76;99341.34;1765165;80;21063;-66
2022/07/14 02:34:02;;;;;;;8.73;2.75;;;;;;;13.86;77.82;99343.57;1765768;81;20996;-67
2022/07/14 02:36:30;;;;;;;7.35;2.37;;;;;;;13.87;77.87;99343.96;1709211;81;21058;-65
2022/07/14 02:38:57;;;;;;;5.22;1.55;;;;;;;13.90;77.96;99345.55;1699195;82;21502;-66
2022/07/14 02:41:23;;;;;;;;;;;;;;;13.91;77.83;99343.27;1703939;82;20989;-67
2022/07/14 02:43:50;;;;;;;6.97;1.55;;;;;;;13.92;78.40;99344.95;1699340;83;20171;-66
2022/07/14 02:46:17;;;;;;;5.50;1.67;;;;;;;13.92;77.95;99355.00;1695503;83;20939;-67
2022/07/14 02:52:30;;;;;;;4.83;1.65;;;;;;;13.95;78.03;99351.30;1813674;77;21517;-66
2022/07/14 02:54:57;;;;;;;4.25;1.57;;;;;;;13.93;77.96;99356.67;1814041;78;21345;-66
2022/07/14 02:57:24;;;;;;;6.22;1.32;;;;;;;13.95;77.85;99362.66;1748506;81;20950;-66
2022/07/14 02:59:51;;;;;;;6.28;1.90;;;;;;;14.05;78.12;99358.45;1761638;79;20977;-66
2022/07/14 03:02:18;;;;;;;8.73;1.70;;;;;;;14.46;78.18;99367.94;1760210;79;21009;-66
2022/07/14 03:04:44;;;;;;;14.40;1.90;;;;;;;14.89;77.81;99364.96;1756251;80;21000;-66
2022/07/14 03:07:11;;;;;;;9.33;1.67;;;;;;;15.32;77.27;99364.53;1764486;79;21473;-66
2022/07/14 03:09:38;;;;;;;7.80;1.55;;;;;;;15.75;76.37;99361.41;1756307;81;20996;-66
2022/07/14 03:12:05;;;;;;;4.27;1.17;;;;;;;15.67;75.40;99369.83;1765959;80;20914;-67
2022/07/14 03:14:31;;;;;;;6.92;1.40;;;;;;;15.76;76.04;99365.70;1760858;81;21556;-67
2022/07/14 03:16:58;;;;;;;10.68;2.33;;;;;;;16.14;75.47;99360.69;1754116;81;20960;-67
2022/07/14 03:19:24;;;;;;;4.03;1.52;;;;;;;16.78;75.65;99359.69;1762218;79;22549;-67
2022/07/14 03:21:51;;;;;;;6.50;2.05;;;;;;;17.42;74.38;99369.98;1762976;79;21029;-67
2022/07/14 03:24:18;;;;;;;11.53;1.80;;;;;;;17.90;74.57;99360.36;1756657;81;21002;-67
2022/07/14 03:26:44;;;;;;;8.13;1.95;;;;;;;18.50;73.57;99361.41;1762888;79;21040;-67
2022/07/14 03:29:11;;;;;;;7.10;1.47;;;;;;;19.04;73.44;99358.09;1757694;79;21631;-67
2022/07/14 03:31:38;;;;;;;7.60;1.87;;;;;;;19.61;71.78;99366.27;1760577;79;21179;-67
2022/07/14 03:34:05;;;;;;;6.75;1.95;;;;;;;19.60;71.05;99371.20;1761370;79;20961;-66
2022/07/14 03:36:32;;;;;;;10.30;1.80;;;;;;;19.17;71.02;99369.76;1755207;79;20957;-67
2022/07/14 03:38:59;;;;;;;5.92;1.65;;;;;;;19.34;71.38;99378.84;1766950;81;20954;-66
2022/07/14 03:41:26;;;;;;;10.28;1.80;;;;;;;19.35;71.03;99376.08;1760103;81;21083;-66
2022/07/14 03:43:53;;;;;;;;;;;;;;;19.26;70.16;99366.28;1769557;81;21102;-66
2022/07/14 03:46:19;;;;;;;16.23;1.95;;;;;;;19.70;69.82;99370.76;1760372;79;20651;-66
2022/07/14 03:48:46;;;;;;;12.07;2.02;;;;;;;20.56;70.46;99366.81;1756401;79;20969;-66
2022/07/14 03:51:12;;;;;;;11.48;2.00;;;;;;;21.50;70.35;99358.63;1767052;79;21017;-67
2022/07/14 03:53:39;;;;;;;7.37;2.00;;;;;;;22.54;69.02;99358.77;1751968;81;21008;-66
2022/07/14 03:56:06;;;;;;;;;;;;;;;23.10;68.09;99347.73;1753466;79;22238;-66
2022/07/14 03:58:33;;;;;;;8.95;1.77;;;;;;;23.58;67.19;99344.83;1756537;79;20219;-66
2022/07/14 04:00:59;;;;;;;17.85;2.75;;;;;;;24.03;67.17;99344.86;1768071;81;20934;-67
2022/07/14 04:03:26;;;;;;;9.85;1.65;;;;;;;24.21;66.47;99345.52;1754667;81;21536;-66
2022/07/14 04:05:53;;;;;;;;;;;;;;;24.68;65.74;99340.75;1724689;81;21055;-67
2022/07/14 04:08:19;;;;;;;8.83;1.72;;;;;;;25.07;64.61;99341.76;1730563;81;21673;-66
2022/07/14 04:10:45;;;;;;;;;;;;;;;25.37;65.07;99336.08;1748402;81;20948;-67
2022/07/14 04:13:12;;;;;;;7.60;1.77;;;;;;;25.75;63.01;99331.63;1727701;81;20112;-67
2022/07/14 04:15:39;;;;;;;11.30;1.98;;;;;;;26.21;64.11;99342.77;1731018;81;21549;-67
2022/07/14 04:18:06;;;;;;;20.05;2.20;;;;;;;26.33;63.01;99333.30;1761600;81;21131;-67
2022/07/14 04:20:32;;;;;;;11.70;2.30;;;;;;;26.54;61.48;99329.39;1745402;81;21068;-67
2022/07/14 04:22:59;;;;;;;9.93;1.87;;;;;;;26.77;62.04;99328.45;1753525;81;21001;-67
2022/07/14 04:25:26;;;;;;;6.15;2.00;;;;;;;27.15;61.19;99328.30;1761075;81;21059;-67
2022/07/14 04:27:53;;;;;;;8.75;2.52;;;;;;;27.41;60.10;99328.59;1758344;79;21542;-67
2022/07/14 04:30:20;;;;;;;7.70;1.95;;;;;;;27.33;58.09;99326.03;1751438;81;21088;-67
2022/07/14 04:32:47;;;;;;;6.47;1.87;;;;;;;27.17;57.78;99323.11;1757973;81;21440;-66
2022/07/14 04:35:15;;;;;;;12.63;2.30;;;;;;;26.50;56.76;99329.45;1730465;81;21037;-67
2022/07/14 04:37:42;;;;;;;9.15;2.40;;;;;;;26.06;57.07;99323.52;1760381;79;20985;-67
2022/07/14 04:40:10;;;;;;;4.78;1.40;;;;;;;26.12;55.87;99317.94;1748851;80;21032;-67
2022/07/14 04:42:37;;;;;;;8.50;1.80;;;;;;;26.04;55.13;99326.88;1743755;81;21063;-67
2022/07/14 04:45:05;;;;;;;9.15;1.82;;;;;;;26.39;55.59;99322.37;1743358;81;21031;-67
2022/07/14 04:47:31;;;;;;;8.83;2.10;;;;;;;26.31;52.37;99323.28;1748258;79;21032;-67
2022/07/14 04:52:47;;;;;;;10.58;1.80;;;;;;;26.11;54.45;99322.47;1675340;85;20966;-68
2022/07/14 04:55:15;;;;;;;9.48;1.80;;;;;;;26.41;53.63;99318.49;1659421;85;21040;-67
2022/07/14 04:57:42;;;;;;;4.08;1.35;;;;;;;26.97;54.02;99320.66;1673352;83;21333;-67
2022/07/14 05:00:11;;;;;;;7.00;1.92;;;;;;;27.38;51.87;99326.30;1677245;84;21001;-67
2022/07/14 05:02:38;;;;;;;5.12;1.80;;;;;;;27.05;51.70;99319.72;1671524;83;21945;-67
2022/07/14 05:05:06;;;;;;;7.65;1.67;;;;;;;27.13;50.78;99319.61;1676606;84;21092;-67
2022/07/14 05:07:33;;;;;;;6.80;1.90;;;;;;;27.05;47.74;99319.72;1661725;84;21125;-67
2022/07/14 05:09:59;;;;;;;8.18;1.77;;;;;;;26.30;49.30;99325.64;1682851;83;22091;-67
2022/07/14 05:12:26;;;;;;;4.67;1.57;;;;;;;26.37;49.85;99324.39;1667253;85;21112;-67
2022/07/14 05:14:53;;;;;;;15.58;2.75;;;;;;;25.49;48.17;99338.69;1673876;84;21080;-66
2022/07/14 05:17:19;;;;;;;17.98;2.72;;;;;;;25.29;49.04;99332.98;1677697;84;21001;-66
2022/07/14 05:19:46;;;;;;;9.78;1.77;;;;;;;25.31;48.59;99334.12;1680344;84;21123;-67
2022/07/14 05:22:13;;;;;;;9.33;1.90;;;;;;;25.57;48.64;99339.97;1658295;85;21468;-67
2022/07/14 05:24:40;;;;;;;5.37;1.32;;;;;;;25.04;47.39;99343.41;1677057;84;21547;-67
2022/07/14 05:27:07;;;;;;;5.20;2.00;;;;;;;25.13;47.81;99345.06;1724194;81;21055;-67
2022/07/14 05:29:33;;;;;;;8.60;1.77;;;;;;;25.59;48.14;99347.28;1763516;81;21012;-67
2022/07/14 05:32:00;;;;;;;10.28;2.58;;;;;;;26.06;46.88;99348.94;1741404;80;20929;-67
2022/07/14 05:34:29;;;;;;;13.22;2.10;;;;;;;25.58;46.07;99354.16;1724866;81;21096;-67
2022/07/14 05:36:56;;;;;;;8.38;1.87;;;;;;;25.63;46.88;99349.94;1745577;81;20988;-67
2022/07/14 05:39:23;;;;;;;10.70;1.62;;;;;;;25.71;46.21;99357.55;1756672;81;21087;-67
2022/07/14 05:41:49;;;;;;;6.10;1.62;;;;;;;25.68;45.26;99351.58;1742085;81;20949;-67
2022/07/14 05:44:16;;;;;;;7.65;1.80;;;;;;;25.18;45.54;99364.93;1739726;80;21151;-68
2022/07/14 05:46:43;;;;;;;5.85;1.90;;;;;;;25.25;45.96;99354.88;1757322;81;21496;-68
2022/07/14 05:49:09;;;;;;;9.90;1.92;;;;;;;25.04;44.54;99352.29;1746178;80;20942;-68
2022/07/14 05:51:36;;;;;;;5.58;1.60;;;;;;;25.46;45.96;99361.77;1751509;81;21008;-69
2022/07/14 05:54:03;;;;;;;4.87;1.20;;;;;;;25.36;44.87;99366.49;1754392;81;21526;-68
2022/07/14 05:56:29;;;;;;;6.08;1.42;;;;;;;24.59;44.52;99371.16;1756157;79;21060;-69
2022/07/14 05:58:56;;;;;;;6.25;1.50;;;;;;;24.22;45.31;99368.50;1761879;80;20980;-66
2022/07/14 06:01:23;;;;;;;8.18;1.80;;;;;;;24.26;44.94;99377.85;1772566;79;21039;-66
2022/07/14 06:03:54;;;;;;;6.33;1.62;;;;;;;24.07;45.23;99380.88;1794076;78;21122;-66
2022/07/14 06:06:18;;;;;;;10.28;2.17;;;;;;;24.07;44.42;99383.03;1769188;80;20993;-66
2022/07/14 06:08:44;;;;;;;9.18;1.90;;;;;;;23.72;44.67;99370.84;1759719;80;20995;-65
2022/07/14 06:11:11;;;;;;;3.67;1.17;;;;;;;23.95;44.22;99374.22;1779764;80;21486;-65
2022/07/14 06:13:40;;;;;;;5.53;1.47;;;;;;;24.45;44.87;99368.69;1755329;81;21565;-65
2022/07/14 06:16:08;;;;;;;5.28;1.80;;;;;;;24.24;44.23;99369.17;1758227;80;20902;-66
2022/07/14 06:18:35;;;;;;;11.78;1.52;;;;;;;24.44;43.58;99374.18;1773529;80;21600;-66
2022/07/14 06:21:01;;;;;;;7.85;1.85;;;;;;;24.58;44.33;99370.80;1791668;80;20904;-66
2022/07/14 06:23:28;;;;;;;6.58;1.42;;;;;;;24.39;43.96;99373.81;1789072;79;21160;-66
2022/07/14 06:25:55;;;;;;;3.72;1.20;;;;;;;23.79;43.03;99373.20;1766082;80;21009;-66
2022/07/14 06:28:21;;;;;;;5.00;1.70;;;;;;;23.45;43.68;99376.80;1758993;81;21008;-66
2022/07/14 06:30:48;;;;;;;5.72;1.70;;;;;;;23.33;43.38;99386.11;1756574;81;21082;-66
2022/07/14 06:33:14;;;;;;;14.50;2.02;;;;;;;23.50;44.11;99386.11;1763220;80;21566;-66
2022/07/14 06:35:42;;;;;;;6.37;1.42;;;;;;;23.60;43.77;99381.48;1759582;81;21398;-66
2022/07/14 06:38:10;;;;;;;7.53;1.82;;;;;;;22.97;43.80;99380.98;1764093;80;20918;-66
2022/07/14 06:40:39;;;;;;;3.95;1.40;;;;;;;22.62;44.22;99389.09;1763722;81;20996;-66
2022/07/14 06:43:06;;;;;;;9.58;1.70;;;;;;;21.77;43.80;99386.13;1769333;80;21008;-66
2022/07/14 06:45:33;;;;;;;5.37;1.52;;;;;;;20.97;44.35;99391.20;1792565;80;21053;-66
2022/07/14 06:48:00;;;;;;;3.90;1.37;;;;;;;20.45;44.70;99390.83;1741841;80;21101;-67
2022/07/14 06:50:27;;;;;;;5.95;1.62;;;;;;;19.81;45.15;99387.84;1751734;81;21010;-67
2022/07/14 06:52:53;;;;;;;4.92;1.52;;;;;;;19.76;45.84;99386.09;1752294;80;21025;-67
2022/07/14 06:55:20;;;;;;;;;;;;;;;20.51;46.06;99375.17;1744651;81;20923;-67
2022/07/14 06:57:47;;;;;;;6.05;1.87;;;;;;;21.28;45.95;99367.84;1750934;81;20161;-67
2022/07/14 07:00:16;;;;;;;9.05;1.30;;;;;;;21.90;45.76;99369.28;1739912;81;20974;-67
2022/07/14 07:02:42;;;;;;;7.10;1.70;;;;;;;21.98;45.14;99369.84;1743163;81;20908;-67
2022/07/14 07:08:00;;;;;;;12.55;1.80;;;;;;;21.90;44.85;99367.95;1737185;81;20128;-67
2022/07/14 07:10:28;;;;;;;5.72;1.20;;;;;;;21.81;44.61;99377.68;1727621;80;21189;-66
2022/07/14 07:12:55;;;;;;;6.30;1.60;;;;;;;21.47;45.06;99380.19;1721480;81;21117;-66
2022/07/14 07:15:22;;;;;;;5.58;1.72;;;;;;;20.65;45.22;99373.90;1737686;80;21064;-66
2022/07/14 07:17:49;;;;;;;;;;;;;;;20.09;45.84;99382.66;1764542;81;21743;-66
2022/07/14 07:20:16;;;;;;;5.33;1.22;;;;;;;20.10;46.81;99387.80;1760330;80;20091;-67
2022/07/14 07:22:42;;;;;;;8.48;1.72;;;;;;;20.22;46.46;99391.16;1742977;80;21032;-66
2022/07/14 07:25:12;;;;;;;2.90;1.32;;;;;;;19.84;46.69;99387.55;1754054;81;22246;-67
2022/07/14 07:27:39;;;;;;;17.12;2.75;;;;;;;19.83;47.00;99385.06;1753653;81;21063;-67
2022/07/14 07:30:08;;;;;;;7.70;1.57;;;;;;;19.84;47.34;99397.32;1744687;80;20986;-66
2022/07/14 07:32:35;;;;;;;9.25;1.77;;;;;;;19.52;47.58;99386.94;1736242;80;20945;-66
2022/07/14 07:35:02;;;;;;;7.72;1.62;;;;;;;19.01;47.62;99386.97;1749214;81;21032;-67
2022/07/14 07:37:28;;;;;;;4.87;1.40;;;;;;;19.13;48.53;99400.09;1759647;81;21081;-66
2022/07/14 07:39:57;;;;;;;8.43;1.32;;;;;;;19.61;48.31;99402.03;1757521;80;20929;-67
2022/07/14 07:42:25;;;;;;;10.25;1.87;;;;;;;20.12;48.74;99400.93;1763400;79;21553;-70
2022/07/14 07:44:53;;;;;;;6.85;1.27;;;;;;;20.55;48.35;99396.95;1736595;81;20989;-68
2022/07/14 07:47:20;;;;;;;8.50;2.37;;;;;;;20.63;48.12;99388.28;1756440;81;21533;-68
2022/07/14 07:49:46;;;;;;;17.87;1.98;;;;;;;20.56;47.10;99382.73;1748815;81;21016;-68
2022/07/14 07:52:13;;;;;;;11.60;1.15;;;;;;;20.49;47.28;99385.08;1732215;79;20993;-68
2022/07/14 07:54:40;;;;;;;5.30;1.30;;;;;;;20.89;47.75;99383.14;1762726;80;21059;-68
2022/07/14 07:57:06;;;;;;;15.15;1.47;;;;;;;21.13;47.20;99380.80;1799703;78;21587;-68
2022/07/14 07:59:33;;;;;;;6.53;1.27;;;;;;;21.42;47.23;99387.77;1788098;79;21024;-68
2022/07/14 08:02:00;;;;;;;4.92;1.57;;;;;;;21.24;47.15;99391.20;1789431;79;21392;-68
2022/07/14 08:04:26;;;;;;;6.17;1.10;;;;;;;21.37;47.33;99386.05;1759161;81;21000;-68
2022/07/14 08:06:53;;;;;;;5.47;1.07;;;;;;;21.42;46.96;99389.09;1761290;80;21001;-68
2022/07/14 08:09:19;;;;;;;4.35;0.95;;;;;;;21.29;46.38;99392.59;1785916;79;20940;-68
2022/07/14 08:11:46;;;;;;;3.12;1.02;;;;;;;21.39;47.05;99393.38;1764792;80;20969;-67
2022/07/14 08:16:58;;;;;;;4.30;1.10;;;;;;;21.95;46.78;99384.27;1792192;79;21347;-68
2022/07/14 08:19:25;;;;;;;;;;;;;;;21.94;46.27;99397.23;1795718;80;20940;-68
2022/07/14 08:21:51;;;;;;;;;;;;;;;21.74;46.37;99398.39;1789299;79;20194;-68
2022/07/14 08:24:18;;;;;;;4.08;0.80;;;;;;;21.67;46.18;99400.30;1788234;80;20227;-68
2022/07/14 08:26:48;;;;;;;4.80;1.47;;;;;;;21.07;45.70;99401.30;1792875;79;21436;-68
2022/07/14 08:29:15;;;;;;;5.30;1.22;;;;;;;20.73;45.94;99403.19;1762710;80;21645;-68
2022/07/14 08:31:41;;;;;;;4.17;1.12;;;;;;;20.72;46.27;99401.50;1773725;80;20981;-68
2022/07/14 08:34:08;;;;;;;4.65;1.00;;;;;;;20.64;45.60;99406.72;1774186;80;21036;-70
2022/07/14 08:36:35;;;;;;;13.60;1.50;;;;;;;20.72;46.37;99405.48;1792571;80;21502;-68
2022/07/14 08:39:05;;;;;;;9.85;1.20;;;;;;;20.76;45.85;99405.55;1778944;80;21059;-68
2022/07/14 08:41:32;;;;;;;3.85;0.95;;;;;;;20.72;46.02;99410.78;1757603;80;21473;-68
2022/07/14 08:43:59;;;;;;;6.22;1.60;;;;;;;20.75;45.59;99406.55;1724239;81;21045;-68
2022/07/14 08:46:26;;;;;;;8.38;1.77;;;;;;;20.16;45.93;99420.86;1747308;80;21054;-67
2022/07/14 08:48:53;;;;;;;;;;;;;;;20.06;46.12;99408.13;1749479;81;21024;-67
2022/07/14 08:51:21;;;;;;;7.33;1.20;;;;;;;20.26;46.59;99408.44;1756015;80;21298;-66
2022/07/14 08:53:48;;;;;;;6.72;1.27;;;;;;;20.47;46.70;99407.41;1758235;81;22139;-67
2022/07/14 08:56:14;;;;;;;7.67;1.42;;;;;;;20.49;46.43;99408.11;1762932;80;20977;-68
2022/07/14 08:58:44;;;;;;;22.42;2.40;;;;;;;20.30;45.92;99413.79;1759888;79;21006;-67
2022/07/14 09:01:12;;;;;;;2.58;0.75;;;;;;;20.17;46.61;99418.58;1758239;81;21045;-68
2022/07/14 09:03:38;;;;;;;20.50;1.90;;;;;;;20.31;46.10;99413.33;1752174;80;21251;-68
2022/07/14 09:06:06;;;;;;;5.60;1.27;;;;;;;20.08;47.03;99424.70;1754997;80;20956;-68
2022/07/14 09:08:55;;;;;;;14.23;1.60;;;;;;;20.09;47.00;99411.81;1756338;79;21013;-68
2022/07/14 09:11:23;;;;;;;3.17;1.05;;;;;;;20.09;47.11;99421.09;1754672;81;20906;-68
2022/07/14 09:13:50;;;;;;;8.93;1.30;;;;;;;19.89;47.38;99417.13;1747586;80;21049;-68
2022/07/14 09:16:21;;;;;;;6.22;1.35;;;;;;;19.52;47.31;99418.72;1749612;80;21481;-68
2022/07/14 09:19:08;;;;;;;6.67;1.17;;;;;;;19.70;48.24;99417.11;1759666;80;21059;-67
2022/07/14 09:21:39;;;;;;;13.70;1.92;;;;;;;19.63;47.89;99418.59;1736827;81;20970;-67
2022/07/14 09:24:09;;;;;;;5.60;1.87;;;;;;;19.31;48.56;99429.42;1765071;81;21648;-67
2022/07/14 09:26:48;;;;;;;11.20;1.70;;;;;;;19.31;48.95;99420.98;1758089;81;21071;-67
2022/07/14 09:29:21;;;;;;;8.98;1.67;;;;;;;19.04;49.35;99436.63;1748900;80;22096;-67
2022/07/14 09:31:48;;;;;;;4.65;1.47;;;;;;;18.98;49.19;99430.89;1743819;80;20979;-67
2022/07/14 09:34:27;;;;;;;;;;;;;;;19.38;49.71;99438.02;1751167;80;20974;-67
2022/07/14 09:37:16;;;;;;;12.13;1.60;;;;;;;19.72;49.45;99444.30;1738587;81;20445;-67
2022/07/14 09:39:56;;;;;;;6.15;1.37;;;;;;;19.50;49.45;99440.55;1753244;80;21105;-67
2022/07/14 09:42:53;;;;;;;6.53;1.50;;;;;;;19.53;49.84;99448.21;1747022;80;21038;-67
2022/07/14 09:45:25;;;;;;;8.13;1.70;;;;;;;19.66;49.80;99438.20;1761105;81;21551;-67
2022/07/14 09:47:56;;;;;;;5.90;1.55;;;;;;;19.66;49.51;99434.23;1764550;80;21009;-69
2022/07/14 09:50:42;;;;;;;9.30;1.60;;;;;;;19.92;49.86;99444.32;1753299;80;21020;-67
2022/07/14 09:53:34;;;;;;;6.65;1.17;;;;;;;19.88;49.67;99426.06;1777593;79;21085;-67
2022/07/14 09:56:09;;;;;;;5.80;1.02;;;;;;;19.66;49.51;99428.94;1784292;80;21107;-64
2022/07/14 09:58:51;;;;;;;10.10;1.60;;;;;;;19.57;49.90;99446.95;1735503;81;21544;-66
2022/07/14 10:01:23;;;;;;;7.55;1.42;;;;;;;19.78;50.02;99438.94;1791561;79;21023;-67
2022/07/14 10:03:51;;;;;;;7.35;1.50;;;;;;;19.85;49.46;99434.25;1745649;81;21567;-68
2022/07/14 10:06:21;;;;;;;8.38;1.60;;;;;;;19.67;49.45;99431.95;1764872;80;21021;-66
2022/07/14 10:08:52;;;;;;;15.45;2.12;;;;;;;19.68;49.26;99432.30;1757217;81;21132;-68
2022/07/14 10:11:22;;;;;;;3.77;1.12;;;;;;;19.90;49.75;99421.44;1758844;80;20958;-67
2022/07/14 10:13:50;;;;;;;2.12;0.80;;;;;;;20.21;49.19;99430.55;1767370;80;20985;-68
2022/07/14 10:16:18;;;;;;;6.72;1.40;;;;;;;19.88;48.36;99438.44;1759804;80;21613;-68
2022/07/14 10:18:46;;;;;;;6.30;1.67;;;;;;;19.28;48.78;99430.52;1763740;81;20997;-67
2022/07/14 10:21:15;;;;;;;4.60;1.07;;;;;;;18.95;49.20;99436.45;1757363;81;21853;-67
2022/07/14 10:23:42;;;;;;;5.85;1.77;;;;;;;18.89;49.46;99440.95;1757735;79;21649;-68
2022/07/14 10:26:10;;;;;;;5.60;1.02;;;;;;;19.03;49.45;99449.52;1757477;79;21708;-68
2022/07/14 10:28:39;;;;;;;4.83;1.25;;;;;;;19.15;49.68;99451.09;1785870;80;21527;-67
2022/07/14 10:31:47;;;;;;;3.37;0.88;;;;;;;19.48;49.92;99445.13;1767971;80;21040;-68
2022/07/14 10:34:37;;;;;;;3.92;1.32;;;;;;;19.66;49.81;99442.18;1758319;80;21419;-68
2022/07/14 10:37:29;;;;;;;4.80;1.40;;;;;;;19.86;49.98;99445.22;1746777;79;20961;-68
2022/07/14 10:40:28;;;;;;;3.25;1.17;;;;;;;20.15;49.69;99431.13;1756731;80;20898;-68
2022/07/14 10:43:16;;;;;;;44.83;4.17;;;;;;;20.18;49.45;99433.98;1758314;80;20989;-69
2022/07/14 10:45:52;;;;;;;10.10;1.45;;;;;;;20.23;49.93;99424.63;1753667;81;21042;-68
2022/07/14 10:48:31;;;;;;;6.47;1.20;;;;;;;20.27;49.71;99428.66;1749529;81;21091;-67
2022/07/14 10:51:21;;;;;;;2.67;1.10;;;;;;;19.94;49.54;99435.27;1734382;81;21016;-68
2022/07/14 10:54:27;;;;;;;11.60;1.47;;;;;;;19.76;49.23;99424.50;1737283;80;21332;-68
2022/07/14 10:57:13;;;;;;;4.30;1.22;;;;;;;19.60;48.72;99432.11;1742692;80;20965;-68
2022/07/14 10:59:42;;;;;;;4.15;0.90;;;;;;;19.76;49.15;99433.77;1737695;81;20993;-69
2022/07/14 11:02:18;;;;;;;8.20;1.62;;;;;;;19.62;48.94;99436.79;1763973;79;21576;-68
2022/07/14 11:05:08;;;;;;;4.62;1.10;;;;;;;19.45;49.13;99443.09;1750233;81;21600;-68
2022/07/14 11:07:46;;;;;;;10.15;2.08;;;;;;;19.52;49.54;99455.78;1744308;81;21000;-68
2022/07/14 11:10:25;;;;;;;2.92;0.95;;;;;;;20.08;49.52;99447.23;1752810;80;20988;-68
2022/07/14 11:13:09;;;;;;;6.42;0.90;;;;;;;20.55;49.15;99439.39;1736599;81;21012;-68
2022/07/14 11:15:40;;;;;;;10.15;1.72;;;;;;;20.70;48.74;99435.32;1756836;81;22687;-67
2022/07/14 11:18:25;;;;;;;4.17;0.90;;;;;;;20.37;48.16;99436.61;1748019;80;20957;-68
2022/07/14 11:21:06;;;;;;;16.87;3.08;;;;;;;20.15;48.77;99437.75;1748126;81;20949;-67
2022/07/14 11:23:49;;;;;;;4.20;0.95;;;;;;;20.03;48.65;99444.19;1742856;80;21049;-68
2022/07/14 11:26:40;;;;;;;2.72;0.85;;;;;;;19.86;48.24;99438.59;1746083;81;20902;-68
2022/07/14 11:29:09;;;;;;;6.00;1.00;;;;;;;19.72;47.78;99433.71;1750906;80;21122;-69
2022/07/14 11:31:52;;;;;;;8.25;1.12;;;;;;;19.69;48.11;99447.23;1728066;81;21558;-67
2022/07/14 11:37:19;;;;;;;8.33;2.00;;;;;;;19.82;47.57;99433.21;1747967;81;21019;-68
2022/07/14 11:41:13;;;;;;;5.37;1.30;;;;;;;19.95;47.72;99436.09;1868649;76;22639;-66
2022/07/14 11:43:45;;;;;;;3.27;1.10;;;;;;;19.51;47.57;99430.30;1815357;77;21505;-65
2022/07/14 11:46:16;;;;;;;6.45;1.42;;;;;;;19.45;48.04;99429.03;1816428;77;21273;-66
2022/07/14 11:48:50;;;;;;;3.22;1.05;;;;;;;19.60;48.33;99432.11;1819238;77;21052;-66
2022/07/14 11:51:24;;;;;;;3.08;0.90;;;;;;;19.51;47.88;99435.59;1823071;78;20985;-65
2022/07/14 11:53:59;;;;;;;3.87;0.88;;;;;;;19.37;48.10;99432.34;1815494;78;20895;-65
2022/07/14 11:56:27;;;;;;;13.60;1.85;;;;;;;19.20;48.11;99446.23;1803389;77;21056;-66
2022/07/14 11:59:03;;;;;;;7.62;1.20;;;;;;;19.42;48.54;99439.40;1811997;78;21150;-66
2022/07/14 12:01:35;;;;;;;4.45;1.30;;;;;;;19.94;48.27;99443.67;1813025;78;20934;-66
2022/07/14 12:04:11;;;;;;;29.63;8.80;;;;;;;20.14;48.39;99426.81;1816865;78;21063;-66